VTBS/BKK METAR and TAF weather

Enter ICAO airport designator
Station Type Date Time Source
VTBS METAR 2021/04/13 22:30 UTC NOAA

VTBS 132230Z 21002KT 9999 FEW020 28/27 Q1010 NOSIG


Station Type Date Time Source
VTBS Decoded METAR 2021/04/13 22:30 UTC NOAA

Chon Buri, Thailand (VTBS) 13-22N 100-59E 2M
Apr 13, 2021 - 06:30 PM EDT / 2021.04.13 2230 UTC
Wind: from the SSW (210 degrees) at 2 MPH (2 KT):0
Visibility: greater than 7 mile(s):0
Sky conditions: mostly clear
Temperature: 82 F (28 C)
Dew Point: 80 F (27 C)
Relative Humidity: 94%
Pressure (altimeter): 29.83 in. Hg (1010 hPa)
ob: VTBS 132230Z 21002KT 9999 FEW020 28/27 Q1010 NOSIG
cycle: 22

Station Type Date Time Source
VTBS TAF 2021/04/13 18:00 UTC NOAA

TAF VTBS 131700Z 1318/1424 12005KT 9000 FEW020 SCT080
BECMG 1322/1324 19008KT
TEMPO 1401/1405 16010G25KT 4000 TSRA FEW018CB SCT030 BKN100

Example: see airport list